Idledale, Colorado
Current Conditions -  °F | °C
As of 7:47 AM on Saturday 20 Dec 2014 (Local Time) from KBJC Reporting Station
Broken Clouds Broken Clouds  
Wind Chill: 36°   Ceiling: 20000
Heat Index: 36°   Visibility: 50mi
Dew Point: 18°   Wind: 0mph
Humidity: 48%   Direction: NA
Pressure: 29.97"   Gusts: NA
Location:  39.67°N, 105.25°W
Report Text: KBJC 201447Z 00000KT 50SM SCT080 BKN200 02/M08 A2997
Loading
Personal Weather Stations






























Interactive Weather Map New forecast layout! Learn more

10-Day Weather Forecast

Advertisements
Track Severe Weather on mobile